Time;durP1;ratioP1;P1;durP2;ratioP2;P2;SDS_P1;SDS_P2;PMS_P1;PMS_P2;Temp;Humidity;BMP_temperature;BMP_pressure;BME280_temperature;BME280_humidity;BME280_pressure;Samples;Min_cycle;Max_cycle;Signal;HPM_P1;HPM_P2
2021/12/18 00:01:10;;;;;;;;;;;;;;;;;;5083391;28;19971;-77
2021/12/18 00:03:35;;;;;;;;;;;;;;;;;;5074215;28;19997;-77
2021/12/18 00:06:01;;;;;;;;;;;;;;;;;;5073274;28;20274;-77
2021/12/18 00:08:27;;;;;;;;;;;;;;;;;;5074619;28;19923;-77
2021/12/18 00:10:53;;;;;;;;;;;;;;;;;;5072973;28;19963;-78
2021/12/18 00:13:19;;;;;;;;;;;;;;;;;;5074369;28;19917;-78
2021/12/18 00:15:44;;;;;;;;;;;;;;;;;;5074128;28;20298;-77
2021/12/18 00:18:09;;;;;;;;;;;;;;;;;;5074631;28;19917;-76
2021/12/18 00:20:37;;;;;;;;;;;;;;;;;;5072900;28;19923;-76
2021/12/18 00:23:02;;;;;;;;;;;;;;;;;;5074197;28;19916;-76
2021/12/18 00:25:28;;;;;;;;;;;;;;;;;;5074332;28;19939;-77
2021/12/18 00:27:53;;;;;;;;;;;;;;;;;;5074244;28;19913;-76
2021/12/18 00:30:18;;;;;;;;;;;;;;;;;;5074098;28;19917;-76
2021/12/18 00:32:44;;;;;;;;;;;;;;;;;;5074199;28;19920;-76
2021/12/18 00:35:09;;;;;;;;;;;;;;;;;;5082915;28;19916;-77
2021/12/18 00:37:34;;;;;;;;;;;;;;;;;;5094186;28;19916;-76
2021/12/18 00:40:00;;;;;;;;;;;;;;;;;;5094401;28;19974;-76
2021/12/18 00:45:01;;;;;;;;;;;;;;;;;;5094338;28;19920;-76
2021/12/18 00:47:26;;;;;;;;;;;;;;;;;;5093685;28;19920;-77
2021/12/18 00:49:51;;;;;;;;;;;;;;;;;;5094411;28;20012;-77
2021/12/18 00:52:17;;;;;;;;;;;;;;;;;;5094040;28;19920;-76
2021/12/18 00:54:42;;;;;;;;;;;;;;;;;;5093936;28;19927;-76
2021/12/18 00:57:07;;;;;;;;;;;;;;;;;;5093634;28;19916;-76
2021/12/18 00:59:34;;;;;;;;;;;;;;;;;;5093112;28;19916;-76
2021/12/18 01:01:59;;;;;;;;;;;;;;;;;;5094105;28;20267;-76
2021/12/18 01:04:26;;;;;;;;;;;;;;;;;;5096357;28;19942;-76
2021/12/18 01:06:51;;;;;;;;;;;;;;;;;;5114061;28;19927;-76
2021/12/18 01:09:20;;;;;;;;;;;;;;;;;;5113866;28;20281;-77
2021/12/18 01:11:47;;;;;;;;;;;;;;;;;;5105721;28;19951;-77
2021/12/18 01:22:40;;;;;;;;;;;;;;;;;;5093694;28;19983;-77
2021/12/18 01:25:05;;;;;;;;;;;;;;;;;;5093723;28;20324;-77
2021/12/18 01:27:31;;;;;;;;;;;;;;;;;;5093508;28;19919;-77
2021/12/18 01:29:56;;;;;;;;;;;;;;;;;;5093970;28;20336;-78
2021/12/18 01:32:22;;;;;;;;;;;;;;;;;;5093806;28;19916;-77
2021/12/18 01:34:48;;;;;;;;;;;;;;;;;;5092680;28;20294;-77
2021/12/18 01:37:14;;;;;;;;;;;;;;;;;;5093806;28;20010;-76
2021/12/18 01:39:39;;;;;;;;;;;;;;;;;;5093760;28;20014;-76
2021/12/18 01:52:38;;;;;;;;;;;;;;;;;;5093471;28;19916;-77
2021/12/18 01:55:04;;;;;;;;;;;;;;;;;;5091983;28;19916;-76
2021/12/18 01:57:32;;;;;;;;;;;;;;;;;;5092571;28;22189;-77
2021/12/18 01:59:58;;;;;;;;;;;;;;;;;;5093396;28;19917;-77
2021/12/18 02:02:23;;;;;;;;;;;;;;;;;;5093337;28;19920;-77
2021/12/18 02:04:49;;;;;;;;;;;;;;;;;;5092665;28;19962;-76
2021/12/18 02:07:14;;;;;;;;;;;;;;;;;;5093397;28;19919;-76
2021/12/18 02:12:25;;;;;;;;;;;;;;;;;;5097221;28;20463;-76
2021/12/18 02:22:47;;;;;;;;;;;;;;;;;;5096778;28;19920;-77
2021/12/18 02:25:12;;;;;;;;;;;;;;;;;;5095625;28;20338;-76
2021/12/18 02:27:38;;;;;;;;;;;;;;;;;;5095489;28;19916;-77
2021/12/18 02:30:04;;;;;;;;;;;;;;;;;;5096936;28;19916;-76
2021/12/18 02:32:30;;;;;;;;;;;;;;;;;;5097007;28;20358;-77
2021/12/18 02:34:58;;;;;;;;;;;;;;;;;;5103717;28;19916;-77
2021/12/18 02:37:24;;;;;;;;;;;;;;;;;;5096496;28;19920;-77
2021/12/18 02:42:22;;;;;;;;;;;;;;;;;;5096508;28;19988;-77
2021/12/18 02:44:48;;;;;;;;;;;;;;;;;;5095201;28;19934;-76
2021/12/18 02:47:13;;;;;;;;;;;;;;;;;;5096319;28;19920;-76
2021/12/18 02:49:43;;;;;;;;;;;;;;;;;;5096466;28;19939;-76
2021/12/18 02:52:08;;;;;;;;;;;;;;;;;;5095719;28;19916;-77
2021/12/18 02:54:36;;;;;;;;;;;;;;;;;;5096401;28;19923;-76
2021/12/18 02:57:01;;;;;;;;;;;;;;;;;;5096019;28;19927;-77
2021/12/18 02:59:27;;;;;;;;;;;;;;;;;;5096090;28;20006;-78
2021/12/18 03:01:52;;;;;;;;;;;;;;;;;;5096265;28;20021;-78
2021/12/18 03:04:23;;;;;;;;;;;;;;;;;;5096211;28;19942;-77
2021/12/18 03:06:54;;;;;;;;;;;;;;;;;;5095075;28;19916;-77
2021/12/18 03:09:52;;;;;;;;;;;;;;;;;;5095846;28;20266;-76
2021/12/18 03:25:31;;;;;;;;;;;;;;;;;;5095798;28;20002;-77
2021/12/18 03:27:59;;;;;;;;;;;;;;;;;;5095465;28;19916;-77
2021/12/18 03:30:25;;;;;;;;;;;;;;;;;;5095688;28;20388;-76
2021/12/18 03:32:50;;;;;;;;;;;;;;;;;;5095013;28;19916;-76
2021/12/18 03:35:16;;;;;;;;;;;;;;;;;;5095431;28;19916;-78
2021/12/18 03:37:41;;;;;;;;;;;;;;;;;;5085311;28;19963;-77
2021/12/18 03:40:08;;;;;;;;;;;;;;;;;;5095515;28;19958;-77
2021/12/18 03:42:34;;;;;;;;;;;;;;;;;;5095169;28;20342;-76
2021/12/18 03:44:59;;;;;;;;;;;;;;;;;;5095403;28;19948;-77
2021/12/18 03:47:25;;;;;;;;;;;;;;;;;;5095221;28;19928;-77
2021/12/18 03:49:50;;;;;;;;;;;;;;;;;;5095243;28;19922;-77
2021/12/18 03:52:15;;;;;;;;;;;;;;;;;;5095047;28;19916;-76
2021/12/18 03:54:40;;;;;;;;;;;;;;;;;;5095061;28;20285;-76
2021/12/18 03:57:06;;;;;;;;;;;;;;;;;;5095065;28;19916;-79
2021/12/18 03:59:31;;;;;;;;;;;;;;;;;;5095134;28;20310;-76
2021/12/18 04:01:57;;;;;;;;;;;;;;;;;;5094833;28;19943;-76
2021/12/18 04:04:22;;;;;;;;;;;;;;;;;;5094850;28;20290;-77
2021/12/18 04:06:48;;;;;;;;;;;;;;;;;;5094830;28;19916;-77
2021/12/18 04:09:13;;;;;;;;;;;;;;;;;;5094670;28;19923;-76
2021/12/18 04:11:39;;;;;;;;;;;;;;;;;;5094823;28;19916;-76
2021/12/18 04:14:05;;;;;;;;;;;;;;;;;;5093542;28;19923;-76
2021/12/18 04:16:31;;;;;;;;;;;;;;;;;;5094815;28;19916;-77
2021/12/18 04:18:56;;;;;;;;;;;;;;;;;;5093990;28;19938;-77
2021/12/18 04:21:21;;;;;;;;;;;;;;;;;;5094603;28;19927;-76
2021/12/18 04:23:46;;;;;;;;;;;;;;;;;;5094485;28;20529;-77
2021/12/18 04:26:12;;;;;;;;;;;;;;;;;;5094455;28;19916;-77
2021/12/18 04:28:37;;;;;;;;;;;;;;;;;;5094523;28;19959;-76
2021/12/18 04:31:03;;;;;;;;;;;;;;;;;;5094347;28;19916;-77
2021/12/18 04:33:28;;;;;;;;;;;;;;;;;;5094019;28;19923;-77
2021/12/18 04:35:53;;;;;;;;;;;;;;;;;;5094337;28;19916;-77
2021/12/18 04:38:19;;;;;;;;;;;;;;;;;;5094050;28;20485;-77
2021/12/18 04:40:44;;;;;;;;;;;;;;;;;;5093396;28;19920;-77
2021/12/18 04:43:10;;;;;;;;;;;;;;;;;;5094265;28;19923;-77
2021/12/18 04:45:35;;;;;;;;;;;;;;;;;;5094133;28;19916;-77
2021/12/18 04:48:01;;;;;;;;;;;;;;;;;;5093983;28;20357;-76
2021/12/18 04:50:26;;;;;;;;;;;;;;;;;;5094023;28;19923;-76
2021/12/18 04:52:51;;;;;;;;;;;;;;;;;;5094145;28;19923;-76
2021/12/18 04:55:17;;;;;;;;;;;;;;;;;;5094140;28;19984;-77
2021/12/18 04:57:42;;;;;;;;;;;;;;;;;;5093379;28;19916;-77
2021/12/18 05:00:10;;;;;;;;;;;;;;;;;;5093905;28;19922;-77
2021/12/18 05:02:39;;;;;;;;;;;;;;;;;;5093750;28;19927;-77
2021/12/18 05:05:05;;;;;;;;;;;;;;;;;;5093836;28;19916;-76
2021/12/18 05:07:31;;;;;;;;;;;;;;;;;;5093843;28;20107;-76
2021/12/18 05:09:56;;;;;;;;;;;;;;;;;;5094074;28;19966;-77
2021/12/18 05:12:22;;;;;;;;;;;;;;;;;;5093211;28;20053;-77
2021/12/18 05:14:47;;;;;;;;;;;;;;;;;;5093979;28;20024;-76
2021/12/18 05:17:12;;;;;;;;;;;;;;;;;;5093776;28;19920;-76
2021/12/18 05:19:37;;;;;;;;;;;;;;;;;;5093545;28;20014;-76
2021/12/18 05:22:03;;;;;;;;;;;;;;;;;;5093825;28;19928;-77
2021/12/18 05:24:29;;;;;;;;;;;;;;;;;;5093678;28;19912;-76
2021/12/18 05:26:54;;;;;;;;;;;;;;;;;;5093804;28;19916;-76
2021/12/18 05:29:19;;;;;;;;;;;;;;;;;;5093678;28;20383;-77
2021/12/18 05:31:45;;;;;;;;;;;;;;;;;;5093722;28;19923;-76
2021/12/18 05:34:11;;;;;;;;;;;;;;;;;;5093762;28;19920;-76
2021/12/18 05:37:11;;;;;;;;;;;;;;;;;;5093412;28;19916;-77
2021/12/18 05:39:31;;;;;;;;;;;;;;;;;;5093346;28;19923;-77
2021/12/18 05:41:57;;;;;;;;;;;;;;;;;;5093829;28;20274;-77
2021/12/18 05:44:24;;;;;;;;;;;;;;;;;;5093418;28;19923;-77
2021/12/18 05:46:49;;;;;;;;;;;;;;;;;;5096488;28;19938;-77
2021/12/18 05:49:15;;;;;;;;;;;;;;;;;;5097179;28;19916;-76
2021/12/18 05:51:42;;;;;;;;;;;;;;;;;;5097595;28;19943;-77
2021/12/18 05:54:08;;;;;;;;;;;;;;;;;;5096734;28;19943;-77
2021/12/18 05:56:33;;;;;;;;;;;;;;;;;;5097105;28;20011;-77
2021/12/18 05:58:59;;;;;;;;;;;;;;;;;;5097249;28;19938;-76
2021/12/18 06:01:25;;;;;;;;;;;;;;;;;;5096993;28;19920;-76
2021/12/18 06:03:50;;;;;;;;;;;;;;;;;;5097009;28;19919;-77
2021/12/18 06:06:15;;;;;;;;;;;;;;;;;;5096313;28;20262;-77
2021/12/18 06:08:42;;;;;;;;;;;;;;;;;;5097282;28;19919;-76
2021/12/18 06:11:14;;;;;;;;;;;;;;;;;;5097411;28;19950;-76
2021/12/18 06:13:40;;;;;;;;;;;;;;;;;;5096620;28;19962;-75
2021/12/18 06:16:06;;;;;;;;;;;;;;;;;;5096890;28;19920;-76
2021/12/18 06:18:32;;;;;;;;;;;;;;;;;;5096818;28;20018;-77
2021/12/18 06:20:57;;;;;;;;;;;;;;;;;;5097153;28;19919;-76
2021/12/18 06:23:23;;;;;;;;;;;;;;;;;;5097899;28;19923;-79
2021/12/18 06:25:48;;;;;;;;;;;;;;;;;;5099598;28;20013;-77
2021/12/18 06:28:13;;;;;;;;;;;;;;;;;;5102225;28;20019;-79
2021/12/18 06:30:39;;;;;;;;;;;;;;;;;;5102821;28;20456;-79
2021/12/18 06:33:04;;;;;;;;;;;;;;;;;;5099599;28;19916;-77
2021/12/18 06:35:29;;;;;;;;;;;;;;;;;;5097331;28;19923;-78
2021/12/18 06:37:54;;;;;;;;;;;;;;;;;;5098538;28;19916;-77
2021/12/18 06:40:20;;;;;;;;;;;;;;;;;;5097901;28;19916;-78
2021/12/18 06:42:45;;;;;;;;;;;;;;;;;;5098759;28;19920;-78
2021/12/18 06:45:11;;;;;;;;;;;;;;;;;;5099275;28;19965;-78
2021/12/18 06:47:37;;;;;;;;;;;;;;;;;;5098680;28;19920;-78
2021/12/18 06:50:03;;;;;;;;;;;;;;;;;;5099012;28;20428;-79
2021/12/18 06:52:28;;;;;;;;;;;;;;;;;;5099215;28;19916;-79
2021/12/18 06:54:54;;;;;;;;;;;;;;;;;;5099593;28;20007;-78
2021/12/18 06:57:22;;;;;;;;;;;;;;;;;;5097941;28;19925;-78
2021/12/18 06:59:47;;;;;;;;;;;;;;;;;;5093352;28;19924;-79
2021/12/18 07:02:13;;;;;;;;;;;;;;;;;;5080959;28;20328;-78
2021/12/18 07:04:38;;;;;;;;;;;;;;;;;;5106904;28;20453;-78
2021/12/18 07:07:03;;;;;;;;;;;;;;;;;;5117894;28;20289;-77
2021/12/18 07:09:29;;;;;;;;;;;;;;;;;;5115622;28;19916;-76
2021/12/18 07:11:54;;;;;;;;;;;;;;;;;;5116229;28;20013;-76
2021/12/18 07:14:19;;;;;;;;;;;;;;;;;;5116428;28;19916;-76
2021/12/18 07:16:45;;;;;;;;;;;;;;;;;;5116421;28;19915;-77
2021/12/18 07:19:10;;;;;;;;;;;;;;;;;;5116612;28;19919;-77
2021/12/18 07:21:35;;;;;;;;;;;;;;;;;;5116667;28;19916;-76
2021/12/18 07:24:01;;;;;;;;;;;;;;;;;;5116219;28;19919;-76
2021/12/18 07:26:27;;;;;;;;;;;;;;;;;;5114673;28;20336;-77
2021/12/18 07:28:53;;;;;;;;;;;;;;;;;;5119012;28;20423;-78
2021/12/18 07:31:18;;;;;;;;;;;;;;;;;;5119558;28;19920;-77
2021/12/18 07:33:44;;;;;;;;;;;;;;;;;;5107581;28;20007;-77
2021/12/18 07:36:10;;;;;;;;;;;;;;;;;;5095444;28;19923;-77
2021/12/18 07:38:36;;;;;;;;;;;;;;;;;;5095443;28;20270;-76
2021/12/18 07:41:01;;;;;;;;;;;;;;;;;;5094085;28;19924;-76
2021/12/18 07:43:26;;;;;;;;;;;;;;;;;;5095662;28;19941;-77
2021/12/18 07:45:52;;;;;;;;;;;;;;;;;;5094751;28;20000;-77
2021/12/18 07:48:18;;;;;;;;;;;;;;;;;;5095281;28;19920;-77
2021/12/18 07:50:43;;;;;;;;;;;;;;;;;;5095160;28;19923;-78
2021/12/18 07:53:09;;;;;;;;;;;;;;;;;;5097089;28;19916;-77
2021/12/18 07:55:34;;;;;;;;;;;;;;;;;;5095562;28;19923;-77
2021/12/18 07:57:59;;;;;;;;;;;;;;;;;;5095898;28;20007;-78
2021/12/18 08:00:24;;;;;;;;;;;;;;;;;;5096273;28;19916;-78
2021/12/18 08:02:50;;;;;;;;;;;;;;;;;;5096010;28;19920;-78
2021/12/18 08:05:15;;;;;;;;;;;;;;;;;;5114233;28;20002;-78
2021/12/18 08:07:41;;;;;;;;;;;;;;;;;;5115577;28;19927;-77
2021/12/18 08:10:07;;;;;;;;;;;;;;;;;;5115757;28;19940;-77
2021/12/18 08:12:32;;;;;;;;;;;;;;;;;;5114032;28;19955;-78
2021/12/18 08:14:58;;;;;;;;;;;;;;;;;;5114052;28;19916;-78
2021/12/18 08:17:24;;;;;;;;;;;;;;;;;;5113863;28;19916;-77
2021/12/18 08:19:49;;;;;;;;;;;;;;;;;;5114293;28;19973;-78
2021/12/18 08:22:14;;;;;;;;;;;;;;;;;;5114367;28;20420;-78
2021/12/18 08:24:40;;;;;;;;;;;;;;;;;;5113111;28;19923;-78
2021/12/18 08:27:05;;;;;;;;;;;;;;;;;;5115726;28;19912;-78
2021/12/18 08:29:30;;;;;;;;;;;;;;;;;;5116527;28;19926;-79
2021/12/18 08:31:56;;;;;;;;;;;;;;;;;;5115594;28;19923;-77
2021/12/18 08:34:21;;;;;;;;;;;;;;;;;;5102404;28;19920;-77
2021/12/18 08:36:47;;;;;;;;;;;;;;;;;;5095381;28;19916;-77
2021/12/18 08:39:12;;;;;;;;;;;;;;;;;;5095793;28;20015;-79
2021/12/18 08:41:38;;;;;;;;;;;;;;;;;;5095521;28;19977;-78
2021/12/18 08:44:04;;;;;;;;;;;;;;;;;;5096113;28;19915;-77
2021/12/18 08:46:29;;;;;;;;;;;;;;;;;;5095067;28;20358;-77
2021/12/18 08:48:55;;;;;;;;;;;;;;;;;;5095830;28;19943;-77
2021/12/18 08:51:20;;;;;;;;;;;;;;;;;;5094786;28;20021;-78
2021/12/18 08:53:45;;;;;;;;;;;;;;;;;;5094469;28;19916;-77
2021/12/18 08:56:11;;;;;;;;;;;;;;;;;;5095801;28;19919;-78
2021/12/18 08:58:36;;;;;;;;;;;;;;;;;;5095821;28;19916;-77
2021/12/18 09:01:02;;;;;;;;;;;;;;;;;;5095594;28;19920;-77
2021/12/18 09:03:27;;;;;;;;;;;;;;;;;;5091295;28;19921;-77
2021/12/18 09:05:54;;;;;;;;;;;;;;;;;;5093844;28;19916;-78
2021/12/18 09:08:19;;;;;;;;;;;;;;;;;;5094410;28;19920;-78
2021/12/18 09:10:45;;;;;;;;;;;;;;;;;;5094376;28;19916;-78
2021/12/18 09:13:10;;;;;;;;;;;;;;;;;;5093052;28;19916;-78
2021/12/18 09:15:35;;;;;;;;;;;;;;;;;;5093345;28;20019;-77
2021/12/18 09:18:00;;;;;;;;;;;;;;;;;;5094684;28;19919;-78
2021/12/18 09:20:26;;;;;;;;;;;;;;;;;;5094150;28;20002;-77
2021/12/18 09:22:51;;;;;;;;;;;;;;;;;;5093840;28;19927;-77
2021/12/18 09:25:17;;;;;;;;;;;;;;;;;;5094909;28;19923;-78
2021/12/18 09:27:42;;;;;;;;;;;;;;;;;;5094919;28;19916;-77
2021/12/18 09:30:10;;;;;;;;;;;;;;;;;;5094180;28;19970;-77
2021/12/18 09:32:35;;;;;;;;;;;;;;;;;;5094505;28;19916;-78
2021/12/18 09:35:01;;;;;;;;;;;;;;;;;;5094244;28;20483;-78
2021/12/18 09:37:26;;;;;;;;;;;;;;;;;;5095277;28;19923;-77
2021/12/18 09:39:51;;;;;;;;;;;;;;;;;;5094967;28;19916;-77
2021/12/18 09:42:17;;;;;;;;;;;;;;;;;;5094278;28;19927;-77
2021/12/18 09:44:43;;;;;;;;;;;;;;;;;;5095683;28;19916;-77
2021/12/18 09:47:08;;;;;;;;;;;;;;;;;;5094967;28;19921;-77
2021/12/18 09:49:33;;;;;;;;;;;;;;;;;;5095492;28;19916;-77
2021/12/18 09:51:59;;;;;;;;;;;;;;;;;;5094853;28;19923;-77
2021/12/18 09:54:24;;;;;;;;;;;;;;;;;;5095244;28;19923;-77
2021/12/18 09:56:50;;;;;;;;;;;;;;;;;;5094637;28;20262;-77
2021/12/18 09:59:16;;;;;;;;;;;;;;;;;;5095077;28;20445;-77
2021/12/18 10:01:41;;;;;;;;;;;;;;;;;;5094968;28;19924;-78
2021/12/18 10:04:22;;;;;;;;;;;;;;;;;;5095215;28;19920;-77
2021/12/18 10:06:47;;;;;;;;;;;;;;;;;;5107268;28;19923;-77
2021/12/18 10:09:28;;;;;;;;;;;;;;;;;;5115564;28;19916;-77
2021/12/18 10:11:54;;;;;;;;;;;;;;;;;;5115765;28;20009;-77
2021/12/18 10:14:30;;;;;;;;;;;;;;;;;;5115866;28;20010;-77
2021/12/18 10:16:55;;;;;;;;;;;;;;;;;;5115650;28;19920;-77
2021/12/18 10:19:24;;;;;;;;;;;;;;;;;;5115304;28;19942;-77
2021/12/18 10:22:03;;;;;;;;;;;;;;;;;;5114743;28;20449;-78
2021/12/18 10:24:28;;;;;;;;;;;;;;;;;;5115156;28;19922;-77
2021/12/18 10:26:54;;;;;;;;;;;;;;;;;;5114837;28;20327;-78
2021/12/18 10:29:31;;;;;;;;;;;;;;;;;;5114104;28;20023;-77
2021/12/18 10:32:23;;;;;;;;;;;;;;;;;;5116613;28;19923;-78
2021/12/18 10:34:55;;;;;;;;;;;;;;;;;;5112531;28;19919;-78
2021/12/18 10:37:25;;;;;;;;;;;;;;;;;;5098595;28;19951;-78
2021/12/18 10:39:50;;;;;;;;;;;;;;;;;;5096989;28;19959;-78
2021/12/18 10:42:24;;;;;;;;;;;;;;;;;;5095241;28;19951;-77
2021/12/18 10:45:05;;;;;;;;;;;;;;;;;;5095076;28;20405;-78
2021/12/18 10:47:46;;;;;;;;;;;;;;;;;;5096027;28;19920;-77
2021/12/18 10:50:34;;;;;;;;;;;;;;;;;;5096606;28;19923;-77
2021/12/18 10:53:07;;;;;;;;;;;;;;;;;;5084110;28;19909;-77
2021/12/18 10:55:41;;;;;;;;;;;;;;;;;;5096755;28;20385;-77
2021/12/18 10:58:07;;;;;;;;;;;;;;;;;;5096376;28;19922;-78
2021/12/18 11:00:38;;;;;;;;;;;;;;;;;;5096227;28;19962;-77
2021/12/18 11:03:21;;;;;;;;;;;;;;;;;;5096622;28;19960;-77
2021/12/18 11:06:04;;;;;;;;;;;;;;;;;;5096012;28;19931;-77
2021/12/18 11:08:30;;;;;;;;;;;;;;;;;;5095217;28;19930;-78
2021/12/18 11:14:04;;;;;;;;;;;;;;;;;;5067188;28;19916;-77
2021/12/18 11:16:29;;;;;;;;;;;;;;;;;;5096464;28;19916;-77
2021/12/18 11:18:55;;;;;;;;;;;;;;;;;;5096328;28;19919;-77
2021/12/18 11:21:24;;;;;;;;;;;;;;;;;;5096234;28;20290;-77
2021/12/18 11:24:06;;;;;;;;;;;;;;;;;;5096590;28;19916;-77
2021/12/18 11:26:34;;;;;;;;;;;;;;;;;;5096182;28;19923;-77
2021/12/18 11:29:01;;;;;;;;;;;;;;;;;;5096022;28;20007;-77
2021/12/18 11:31:26;;;;;;;;;;;;;;;;;;5095874;28;19916;-78
2021/12/18 11:33:53;;;;;;;;;;;;;;;;;;5095411;28;19969;-77
2021/12/18 11:36:18;;;;;;;;;;;;;;;;;;5095342;28;19920;-78
2021/12/18 11:38:45;;;;;;;;;;;;;;;;;;5095158;28;19942;-77
2021/12/18 11:41:20;;;;;;;;;;;;;;;;;;5096408;28;19920;-77
2021/12/18 11:43:46;;;;;;;;;;;;;;;;;;5095142;28;20298;-77
2021/12/18 11:46:27;;;;;;;;;;;;;;;;;;5095910;28;19920;-77
2021/12/18 11:48:54;;;;;;;;;;;;;;;;;;5095852;28;19926;-77
2021/12/18 11:51:19;;;;;;;;;;;;;;;;;;5096103;28;19916;-77
2021/12/18 11:53:44;;;;;;;;;;;;;;;;;;5095881;28;19923;-77
2021/12/18 11:56:10;;;;;;;;;;;;;;;;;;5095765;28;19963;-77
2021/12/18 11:58:42;;;;;;;;;;;;;;;;;;5093810;28;19916;-78
2021/12/18 12:01:26;;;;;;;;;;;;;;;;;;5094851;28;19928;-77
2021/12/18 12:03:51;;;;;;;;;;;;;;;;;;5094484;28;20018;-77
2021/12/18 12:06:27;;;;;;;;;;;;;;;;;;5100783;28;19961;-77
2021/12/18 12:09:15;;;;;;;;;;;;;;;;;;5115774;28;19919;-78
2021/12/18 12:11:55;;;;;;;;;;;;;;;;;;5114964;28;20383;-77
2021/12/18 12:14:22;;;;;;;;;;;;;;;;;;5115385;28;19923;-78
2021/12/18 12:16:47;;;;;;;;;;;;;;;;;;5115155;28;19915;-77
2021/12/18 12:19:16;;;;;;;;;;;;;;;;;;5096880;28;19922;-77
2021/12/18 12:21:55;;;;;;;;;;;;;;;;;;5115091;28;19923;-77
2021/12/18 12:24:22;;;;;;;;;;;;;;;;;;5115127;28;19916;-76
2021/12/18 12:26:48;;;;;;;;;;;;;;;;;;5115081;28;19933;-77
2021/12/18 12:29:14;;;;;;;;;;;;;;;;;;5115005;28;19923;-77
2021/12/18 12:31:53;;;;;;;;;;;;;;;;;;5114843;28;19916;-77
2021/12/18 12:34:25;;;;;;;;;;;;;;;;;;5114881;28;19916;-77
2021/12/18 12:36:57;;;;;;;;;;;;;;;;;;5104179;28;19916;-77
2021/12/18 12:39:23;;;;;;;;;;;;;;;;;;5074265;28;19923;-77
2021/12/18 12:41:51;;;;;;;;;;;;;;;;;;5074200;28;20378;-76
2021/12/18 12:44:24;;;;;;;;;;;;;;;;;;5074116;28;19916;-77
2021/12/18 12:47:09;;;;;;;;;;;;;;;;;;5073890;28;20366;-77
2021/12/18 12:49:34;;;;;;;;;;;;;;;;;;5073689;28;19962;-77
2021/12/18 12:52:03;;;;;;;;;;;;;;;;;;5074212;28;20355;-76
2021/12/18 12:54:41;;;;;;;;;;;;;;;;;;5072999;28;19917;-77
2021/12/18 12:57:22;;;;;;;;;;;;;;;;;;5074010;28;19967;-77
2021/12/18 12:59:48;;;;;;;;;;;;;;;;;;5073857;28;19917;-77
2021/12/18 13:02:14;;;;;;;;;;;;;;;;;;5073643;28;19921;-76
2021/12/18 13:04:40;;;;;;;;;;;;;;;;;;5072530;28;19916;-77
2021/12/18 13:07:06;;;;;;;;;;;;;;;;;;5079040;28;19966;-78
2021/12/18 13:09:32;;;;;;;;;;;;;;;;;;5116505;28;20014;-79
2021/12/18 13:12:02;;;;;;;;;;;;;;;;;;5116255;28;19967;-77
2021/12/18 13:14:34;;;;;;;;;;;;;;;;;;5114606;28;19959;-76
2021/12/18 13:17:00;;;;;;;;;;;;;;;;;;5115375;28;20388;-78
2021/12/18 13:19:25;;;;;;;;;;;;;;;;;;5099934;28;19916;-76
2021/12/18 13:21:50;;;;;;;;;;;;;;;;;;5094340;28;19920;-78
2021/12/18 13:24:16;;;;;;;;;;;;;;;;;;5094790;28;19923;-78
2021/12/18 13:26:43;;;;;;;;;;;;;;;;;;5096925;28;20013;-78
2021/12/18 13:29:13;;;;;;;;;;;;;;;;;;5095668;28;20550;-78
2021/12/18 13:31:44;;;;;;;;;;;;;;;;;;5096978;28;19916;-78
2021/12/18 13:34:11;;;;;;;;;;;;;;;;;;5095746;28;19916;-77
2021/12/18 13:36:37;;;;;;;;;;;;;;;;;;5093569;28;19916;-75
2021/12/18 13:39:06;;;;;;;;;;;;;;;;;;5093126;28;20255;-76
2021/12/18 13:41:31;;;;;;;;;;;;;;;;;;5093514;28;19916;-76
2021/12/18 13:43:56;;;;;;;;;;;;;;;;;;5083614;28;19931;-77
2021/12/18 13:46:27;;;;;;;;;;;;;;;;;;5083468;28;19916;-77
2021/12/18 13:48:52;;;;;;;;;;;;;;;;;;5082562;28;19967;-79
2021/12/18 13:51:19;;;;;;;;;;;;;;;;;;5084809;28;20377;-79
2021/12/18 13:53:49;;;;;;;;;;;;;;;;;;5083942;28;20381;-79
2021/12/18 13:56:14;;;;;;;;;;;;;;;;;;5084768;28;19916;-78
2021/12/18 13:58:39;;;;;;;;;;;;;;;;;;5080769;28;19923;-78
2021/12/18 14:01:06;;;;;;;;;;;;;;;;;;5083724;28;19917;-79
2021/12/18 14:03:43;;;;;;;;;;;;;;;;;;5091875;28;20419;-78
2021/12/18 14:06:15;;;;;;;;;;;;;;;;;;5094487;28;20285;-78
2021/12/18 14:08:42;;;;;;;;;;;;;;;;;;5097894;28;19957;-78
2021/12/18 14:11:09;;;;;;;;;;;;;;;;;;5097736;28;19923;-78
2021/12/18 14:13:41;;;;;;;;;;;;;;;;;;5097534;28;19916;-79
2021/12/18 14:16:07;;;;;;;;;;;;;;;;;;5097177;28;19973;-79
2021/12/18 14:18:37;;;;;;;;;;;;;;;;;;5097399;28;19931;-78
2021/12/18 14:21:03;;;;;;;;;;;;;;;;;;5097205;28;19989;-78
2021/12/18 14:23:36;;;;;;;;;;;;;;;;;;5097338;28;19916;-78
2021/12/18 14:26:15;;;;;;;;;;;;;;;;;;5096047;28;20397;-78
2021/12/18 14:28:42;;;;;;;;;;;;;;;;;;5097304;28;20362;-78
2021/12/18 14:31:26;;;;;;;;;;;;;;;;;;5098047;28;20362;-78
2021/12/18 14:33:52;;;;;;;;;;;;;;;;;;5096868;28;20369;-79
2021/12/18 14:36:37;;;;;;;;;;;;;;;;;;5096188;28;19969;-78
2021/12/18 14:39:02;;;;;;;;;;;;;;;;;;5096999;28;19920;-78
2021/12/18 14:41:28;;;;;;;;;;;;;;;;;;5097291;28;19946;-78
2021/12/18 14:43:57;;;;;;;;;;;;;;;;;;5097345;28;19916;-78
2021/12/18 14:46:23;;;;;;;;;;;;;;;;;;5097061;28;20050;-78
2021/12/18 14:48:48;;;;;;;;;;;;;;;;;;5095659;28;20388;-79
2021/12/18 14:51:23;;;;;;;;;;;;;;;;;;5095563;28;20265;-78
2021/12/18 14:54:00;;;;;;;;;;;;;;;;;;5096867;28;19923;-78
2021/12/18 14:56:27;;;;;;;;;;;;;;;;;;5096774;28;19955;-77
2021/12/18 14:58:52;;;;;;;;;;;;;;;;;;5096921;28;19966;-79
2021/12/18 15:01:23;;;;;;;;;;;;;;;;;;5097154;28;19928;-78
2021/12/18 15:03:48;;;;;;;;;;;;;;;;;;5096370;28;20366;-78
2021/12/18 15:06:20;;;;;;;;;;;;;;;;;;5097391;28;19923;-78
2021/12/18 15:08:58;;;;;;;;;;;;;;;;;;5092972;28;19923;-78
2021/12/18 15:11:25;;;;;;;;;;;;;;;;;;5077322;28;19970;-78
2021/12/18 15:14:01;;;;;;;;;;;;;;;;;;5082253;28;19931;-78
2021/12/18 15:16:31;;;;;;;;;;;;;;;;;;5087409;28;20483;-79
2021/12/18 15:18:59;;;;;;;;;;;;;;;;;;5085161;28;19962;-79
2021/12/18 15:21:24;;;;;;;;;;;;;;;;;;5087783;28;19920;-78
2021/12/18 15:23:50;;;;;;;;;;;;;;;;;;5086593;28;20263;-78
2021/12/18 15:26:15;;;;;;;;;;;;;;;;;;5089700;28;19970;-78
2021/12/18 15:28:40;;;;;;;;;;;;;;;;;;5093571;28;19912;-78
2021/12/18 15:31:06;;;;;;;;;;;;;;;;;;5096806;28;19916;-78
2021/12/18 15:33:32;;;;;;;;;;;;;;;;;;5099723;28;19930;-78
2021/12/18 15:35:57;;;;;;;;;;;;;;;;;;5096833;28;19916;-76
2021/12/18 15:38:23;;;;;;;;;;;;;;;;;;5085339;28;19952;-77
2021/12/18 15:40:54;;;;;;;;;;;;;;;;;;5085608;28;19917;-77
2021/12/18 15:43:20;;;;;;;;;;;;;;;;;;5087089;28;19973;-77
2021/12/18 15:45:45;;;;;;;;;;;;;;;;;;5084126;28;20348;-78
2021/12/18 15:48:10;;;;;;;;;;;;;;;;;;5090821;28;19920;-80
2021/12/18 15:50:36;;;;;;;;;;;;;;;;;;5085616;28;19916;-83
2021/12/18 15:53:04;;;;;;;;;;;;;;;;;;5078752;28;19921;-80
2021/12/18 15:55:30;;;;;;;;;;;;;;;;;;5094455;28;19923;-76
2021/12/18 15:57:55;;;;;;;;;;;;;;;;;;5094874;28;19916;-76
2021/12/18 16:00:24;;;;;;;;;;;;;;;;;;5095431;28;19920;-77
2021/12/18 16:02:51;;;;;;;;;;;;;;;;;;5095336;28;19927;-77
2021/12/18 16:05:23;;;;;;;;;;;;;;;;;;5106862;28;19916;-77
2021/12/18 16:07:52;;;;;;;;;;;;;;;;;;5116070;28;19916;-77
2021/12/18 16:10:17;;;;;;;;;;;;;;;;;;5115366;28;19996;-78
2021/12/18 16:12:43;;;;;;;;;;;;;;;;;;5115154;28;19957;-78
2021/12/18 16:15:08;;;;;;;;;;;;;;;;;;5109135;28;19994;-78
2021/12/18 16:17:34;;;;;;;;;;;;;;;;;;5072995;28;20325;-77
2021/12/18 16:19:59;;;;;;;;;;;;;;;;;;5074444;28;20366;-77
2021/12/18 16:22:25;;;;;;;;;;;;;;;;;;5074868;28;19920;-77
2021/12/18 16:24:51;;;;;;;;;;;;;;;;;;5074629;28;20409;-77
2021/12/18 16:27:16;;;;;;;;;;;;;;;;;;5074163;28;19917;-78
2021/12/18 16:29:41;;;;;;;;;;;;;;;;;;5072868;28;19920;-78
2021/12/18 16:32:07;;;;;;;;;;;;;;;;;;5074456;28;19924;-77
2021/12/18 16:34:32;;;;;;;;;;;;;;;;;;5079378;28;20325;-77
2021/12/18 16:37:05;;;;;;;;;;;;;;;;;;5074327;28;19916;-77
2021/12/18 16:39:30;;;;;;;;;;;;;;;;;;5073595;28;19917;-77
2021/12/18 16:41:55;;;;;;;;;;;;;;;;;;5073998;28;19920;-77
2021/12/18 16:44:21;;;;;;;;;;;;;;;;;;5074431;28;20058;-76
2021/12/18 16:46:46;;;;;;;;;;;;;;;;;;5075000;28;19916;-76
2021/12/18 16:49:12;;;;;;;;;;;;;;;;;;5081823;28;19927;-74
2021/12/18 16:51:37;;;;;;;;;;;;;;;;;;5094134;28;19923;-77
2021/12/18 16:54:03;;;;;;;;;;;;;;;;;;5094290;28;19923;-77
2021/12/18 16:56:28;;;;;;;;;;;;;;;;;;5094774;28;19916;-77
2021/12/18 16:58:53;;;;;;;;;;;;;;;;;;5095068;28;19931;-77
2021/12/18 17:01:19;;;;;;;;;;;;;;;;;;5095145;28;20354;-78
2021/12/18 17:03:45;;;;;;;;;;;;;;;;;;5094025;28;19942;-76
2021/12/18 17:06:11;;;;;;;;;;;;;;;;;;5093099;28;20357;-77
2021/12/18 17:08:36;;;;;;;;;;;;;;;;;;5093787;28;19955;-77
2021/12/18 17:11:02;;;;;;;;;;;;;;;;;;5093966;28;19920;-76
2021/12/18 17:13:28;;;;;;;;;;;;;;;;;;5094695;28;20328;-76
2021/12/18 17:15:53;;;;;;;;;;;;;;;;;;5093626;28;19916;-76
2021/12/18 17:18:18;;;;;;;;;;;;;;;;;;5093446;28;19920;-77
2021/12/18 17:20:44;;;;;;;;;;;;;;;;;;5093263;28;19920;-77
2021/12/18 17:23:09;;;;;;;;;;;;;;;;;;5093821;28;19973;-76
2021/12/18 17:25:35;;;;;;;;;;;;;;;;;;5093350;28;20003;-77
2021/12/18 17:28:00;;;;;;;;;;;;;;;;;;5092408;28;20068;-77
2021/12/18 17:30:27;;;;;;;;;;;;;;;;;;5095160;28;19916;-78
2021/12/18 17:32:52;;;;;;;;;;;;;;;;;;5093265;28;19959;-76
2021/12/18 17:35:18;;;;;;;;;;;;;;;;;;5093963;28;19942;-76
2021/12/18 17:37:44;;;;;;;;;;;;;;;;;;5093009;28;19916;-77